UAL154 PTKK-PGUM
Flight info
| Callsign | UAL154 |
|---|---|
| Flight time | 1h 23m |
| Altitude | 36000 |
| Route | WUMVE GUNSS |
| Aircraft | B738/M-SDE2E3FGHIRWXY/LB1 |
Departure
| Time | 2026-05-06 09:26 |
|---|---|
| Airport | Chuuk International Airport (PTKK) |
Arrival
| Time | 2026-05-06 10:49 |
|---|---|
| Airport | Antonio B. Won Pat International Airport (PGUM) |
| Time | Latitude | Longitude | Altitude | Speed | Heading |
|---|---|---|---|---|---|
| 2026-05-06 09:10 | 7.45787 | 151.84094 | 18 ft | 0 kts | 223° |
| 2026-05-06 09:22 | 7.45784 | 151.84092 | 18 ft | 1 kts | 225° |
| 2026-05-06 09:22 | 7.45779 | 151.84077 | 20 ft | 2 kts | 273° |
| 2026-05-06 09:22 | 7.45788 | 151.84073 | 20 ft | 2 kts | 1° |
| 2026-05-06 09:22 | 7.45812 | 151.84076 | 18 ft | 8 kts | 5° |
| 2026-05-06 09:23 | 7.45868 | 151.84057 | 19 ft | 9 kts | 321° |
| 2026-05-06 09:23 | 7.45893 | 151.84020 | 20 ft | 10 kts | 281° |
| 2026-05-06 09:23 | 7.45871 | 151.83968 | 19 ft | 12 kts | 227° |
| 2026-05-06 09:23 | 7.45841 | 151.83934 | 18 ft | 14 kts | 228° |
| 2026-05-06 09:24 | 7.45763 | 151.83850 | 18 ft | 18 kts | 225° |
| 2026-05-06 09:24 | 7.45682 | 151.83749 | 18 ft | 17 kts | 256° |
| 2026-05-06 09:24 | 7.45640 | 151.83699 | 17 ft | 5 kts | 143° |
| 2026-05-06 09:24 | 7.45634 | 151.83717 | 17 ft | 2 kts | 67° |
| 2026-05-06 09:25 | 7.45637 | 151.83720 | 17 ft | 0 kts | 49° |
| 2026-05-06 09:25 | 7.45770 | 151.83860 | 19 ft | 69 kts | 45° |
| 2026-05-06 09:25 | 7.46289 | 151.84397 | 18 ft | 142 kts | 46° |
| 2026-05-06 09:25 | 7.47069 | 151.85220 | 490 ft | 169 kts | 46° |
| 2026-05-06 09:26 | 7.47903 | 151.86032 | 1491 ft | 169 kts | 39° |
| 2026-05-06 09:26 | 7.49089 | 151.86469 | 1854 ft | 203 kts | 3° |
| 2026-05-06 09:26 | 7.50536 | 151.86067 | 2100 ft | 233 kts | 329° |
| 2026-05-06 09:26 | 7.51783 | 151.84931 | 2493 ft | 250 kts | 315° |
| 2026-05-06 09:27 | 7.52975 | 151.83592 | 2895 ft | 266 kts | 313° |
| 2026-05-06 09:27 | 7.54213 | 151.82146 | 3433 ft | 278 kts | 312° |
| 2026-05-06 09:27 | 7.55469 | 151.80664 | 4303 ft | 280 kts | 312° |
| 2026-05-06 09:27 | 7.56740 | 151.79166 | 5168 ft | 282 kts | 312° |
| 2026-05-06 09:28 | 7.58028 | 151.77653 | 6002 ft | 286 kts | 312° |
| 2026-05-06 09:28 | 7.59332 | 151.76125 | 6759 ft | 289 kts | 312° |
| 2026-05-06 09:28 | 7.60632 | 151.74605 | 7522 ft | 292 kts | 311° |
| 2026-05-06 09:28 | 7.61988 | 151.73023 | 8224 ft | 297 kts | 311° |
| 2026-05-06 09:29 | 7.63330 | 151.71459 | 9004 ft | 299 kts | 311° |
| 2026-05-06 09:29 | 7.64701 | 151.69862 | 9731 ft | 304 kts | 311° |
| 2026-05-06 09:29 | 7.66100 | 151.68234 | 10290 ft | 313 kts | 311° |
| 2026-05-06 09:29 | 7.67583 | 151.66510 | 10447 ft | 337 kts | 311° |
| 2026-05-06 09:30 | 7.69164 | 151.64671 | 10720 ft | 353 kts | 311° |
| 2026-05-06 09:30 | 7.70789 | 151.62782 | 11224 ft | 361 kts | 311° |
| 2026-05-06 09:30 | 7.72448 | 151.60853 | 11800 ft | 365 kts | 311° |
| 2026-05-06 09:30 | 7.74119 | 151.58910 | 12480 ft | 367 kts | 311° |
| 2026-05-06 09:31 | 7.75808 | 151.56945 | 13027 ft | 373 kts | 311° |
| 2026-05-06 09:31 | 7.77508 | 151.54968 | 13689 ft | 374 kts | 311° |
| 2026-05-06 09:31 | 7.79225 | 151.52971 | 14214 ft | 379 kts | 311° |
| 2026-05-06 09:31 | 7.80958 | 151.50956 | 14712 ft | 382 kts | 311° |
| 2026-05-06 09:32 | 7.82708 | 151.48920 | 15286 ft | 384 kts | 311° |
| 2026-05-06 09:32 | 7.84448 | 151.46896 | 15762 ft | 388 kts | 311° |
| 2026-05-06 09:32 | 7.86222 | 151.44831 | 16283 ft | 391 kts | 311° |
| 2026-05-06 09:32 | 7.88014 | 151.42746 | 16769 ft | 395 kts | 311° |
| 2026-05-06 09:33 | 7.89816 | 151.40648 | 17293 ft | 397 kts | 311° |
| 2026-05-06 09:33 | 7.91640 | 151.38526 | 17751 ft | 401 kts | 311° |
| 2026-05-06 09:33 | 7.93475 | 151.36389 | 18222 ft | 404 kts | 310° |
| 2026-05-06 09:33 | 7.95322 | 151.34238 | 18648 ft | 406 kts | 310° |
| 2026-05-06 09:34 | 7.97180 | 151.32074 | 19070 ft | 409 kts | 310° |
| 2026-05-06 09:34 | 7.99047 | 151.29899 | 19485 ft | 411 kts | 310° |
| 2026-05-06 09:34 | 8.00925 | 151.27711 | 19890 ft | 414 kts | 310° |
| 2026-05-06 09:34 | 8.02817 | 151.25507 | 20283 ft | 417 kts | 310° |
| 2026-05-06 09:35 | 8.04720 | 151.23288 | 20693 ft | 419 kts | 310° |
| 2026-05-06 09:35 | 8.06606 | 151.21091 | 21097 ft | 421 kts | 310° |
| 2026-05-06 09:35 | 8.08535 | 151.18842 | 21494 ft | 423 kts | 310° |
| 2026-05-06 09:35 | 8.10469 | 151.16587 | 21887 ft | 426 kts | 310° |
| 2026-05-06 09:36 | 8.12414 | 151.14319 | 22265 ft | 428 kts | 310° |
| 2026-05-06 09:36 | 8.14371 | 151.12037 | 22650 ft | 431 kts | 310° |
| 2026-05-06 09:36 | 8.16339 | 151.09741 | 23021 ft | 433 kts | 310° |
| 2026-05-06 09:36 | 8.18288 | 151.07467 | 23372 ft | 435 kts | 309° |
| 2026-05-06 09:37 | 8.20274 | 151.05150 | 23690 ft | 437 kts | 310° |
| 2026-05-06 09:37 | 8.22269 | 151.02821 | 23976 ft | 439 kts | 310° |
| 2026-05-06 09:37 | 8.24275 | 151.00481 | 24284 ft | 441 kts | 310° |
| 2026-05-06 09:37 | 8.26286 | 150.98133 | 24574 ft | 443 kts | 309° |
| 2026-05-06 09:38 | 8.28308 | 150.95772 | 24861 ft | 445 kts | 309° |
| 2026-05-06 09:38 | 8.30337 | 150.93403 | 25141 ft | 447 kts | 310° |
| 2026-05-06 09:38 | 8.32376 | 150.91021 | 25418 ft | 449 kts | 309° |
| 2026-05-06 09:38 | 8.34428 | 150.88624 | 25706 ft | 451 kts | 309° |
| 2026-05-06 09:39 | 8.36481 | 150.86226 | 25979 ft | 452 kts | 309° |
| 2026-05-06 09:39 | 8.38543 | 150.83816 | 26250 ft | 454 kts | 309° |
| 2026-05-06 09:39 | 8.40612 | 150.81398 | 26522 ft | 456 kts | 309° |
| 2026-05-06 09:39 | 8.42693 | 150.78965 | 26776 ft | 458 kts | 309° |
| 2026-05-06 09:40 | 8.44776 | 150.76529 | 27033 ft | 459 kts | 309° |
| 2026-05-06 09:40 | 8.46870 | 150.74080 | 27287 ft | 461 kts | 309° |
| 2026-05-06 09:40 | 8.51051 | 150.69190 | 27782 ft | 464 kts | 309° |
| 2026-05-06 09:41 | 8.53166 | 150.66715 | 28006 ft | 466 kts | 309° |
| 2026-05-06 09:41 | 8.55291 | 150.64228 | 28248 ft | 468 kts | 309° |
| 2026-05-06 09:41 | 8.57425 | 150.61730 | 28472 ft | 469 kts | 309° |
| 2026-05-06 09:41 | 8.59563 | 150.59227 | 28697 ft | 471 kts | 309° |
| 2026-05-06 09:42 | 8.61708 | 150.56716 | 28914 ft | 472 kts | 309° |
| 2026-05-06 09:42 | 8.63861 | 150.54194 | 29131 ft | 474 kts | 309° |
| 2026-05-06 09:42 | 8.66017 | 150.51668 | 29340 ft | 476 kts | 309° |
| 2026-05-06 09:42 | 8.68183 | 150.49131 | 29549 ft | 477 kts | 309° |
| 2026-05-06 09:43 | 8.70354 | 150.46586 | 29746 ft | 478 kts | 309° |
| 2026-05-06 09:43 | 8.72531 | 150.44035 | 29939 ft | 480 kts | 309° |
| 2026-05-06 09:43 | 8.74719 | 150.41470 | 30103 ft | 481 kts | 309° |
| 2026-05-06 09:43 | 8.76905 | 150.38907 | 30265 ft | 482 kts | 309° |
| 2026-05-06 09:44 | 8.79072 | 150.36366 | 30424 ft | 484 kts | 309° |
| 2026-05-06 09:44 | 8.81273 | 150.33784 | 30588 ft | 485 kts | 309° |
| 2026-05-06 09:44 | 8.83502 | 150.31168 | 30755 ft | 485 kts | 309° |
| 2026-05-06 09:44 | 8.85708 | 150.28580 | 30923 ft | 486 kts | 309° |
| 2026-05-06 09:45 | 8.87889 | 150.26019 | 31121 ft | 486 kts | 309° |
| 2026-05-06 09:45 | 8.90094 | 150.23432 | 31334 ft | 486 kts | 309° |
| 2026-05-06 09:45 | 8.92296 | 150.20847 | 31555 ft | 485 kts | 309° |
| 2026-05-06 09:45 | 8.94502 | 150.18256 | 31789 ft | 484 kts | 309° |
| 2026-05-06 09:46 | 8.96699 | 150.15675 | 32013 ft | 484 kts | 309° |
| 2026-05-06 09:46 | 8.98894 | 150.13096 | 32235 ft | 484 kts | 309° |
| 2026-05-06 09:46 | 9.01088 | 150.10518 | 32466 ft | 483 kts | 309° |
| 2026-05-06 09:46 | 9.03280 | 150.07941 | 32694 ft | 483 kts | 309° |
| 2026-05-06 09:47 | 9.05468 | 150.05369 | 32915 ft | 482 kts | 309° |
| 2026-05-06 09:47 | 9.07662 | 150.02789 | 33124 ft | 482 kts | 309° |
| 2026-05-06 09:47 | 9.09850 | 150.00216 | 33329 ft | 483 kts | 309° |
| 2026-05-06 09:47 | 9.12038 | 149.97641 | 33551 ft | 482 kts | 309° |
| 2026-05-06 09:48 | 9.14227 | 149.95066 | 33807 ft | 481 kts | 309° |
| 2026-05-06 09:48 | 9.16405 | 149.92502 | 34047 ft | 480 kts | 309° |
| 2026-05-06 09:48 | 9.18584 | 149.89938 | 34253 ft | 480 kts | 309° |
| 2026-05-06 09:48 | 9.20764 | 149.87373 | 34464 ft | 479 kts | 309° |
| 2026-05-06 09:49 | 9.22914 | 149.84841 | 34675 ft | 479 kts | 309° |
| 2026-05-06 09:49 | 9.25081 | 149.82288 | 34895 ft | 478 kts | 309° |
| 2026-05-06 09:49 | 9.27243 | 149.79742 | 35095 ft | 477 kts | 309° |
| 2026-05-06 09:49 | 9.29408 | 149.77191 | 35292 ft | 477 kts | 309° |
| 2026-05-06 09:50 | 9.31571 | 149.74642 | 35493 ft | 476 kts | 309° |
| 2026-05-06 09:50 | 9.33728 | 149.72099 | 35678 ft | 476 kts | 309° |
| 2026-05-06 09:50 | 9.35886 | 149.69555 | 35817 ft | 475 kts | 309° |
| 2026-05-06 09:50 | 9.38035 | 149.67019 | 35860 ft | 475 kts | 309° |
| 2026-05-06 09:51 | 9.42369 | 149.61907 | 35880 ft | 480 kts | 309° |
| 2026-05-06 09:51 | 9.46732 | 149.56757 | 35874 ft | 481 kts | 309° |
| 2026-05-06 09:52 | 9.51099 | 149.51603 | 35880 ft | 481 kts | 309° |
| 2026-05-06 09:52 | 9.55465 | 149.46446 | 35876 ft | 483 kts | 309° |
| 2026-05-06 09:53 | 9.59837 | 149.41279 | 35873 ft | 483 kts | 309° |
| 2026-05-06 09:53 | 9.64190 | 149.36133 | 35875 ft | 484 kts | 309° |
| 2026-05-06 09:54 | 9.68575 | 149.30947 | 35876 ft | 484 kts | 309° |
| 2026-05-06 09:54 | 9.72951 | 149.25770 | 35868 ft | 482 kts | 309° |
| 2026-05-06 09:55 | 9.77308 | 149.20613 | 35871 ft | 481 kts | 309° |
| 2026-05-06 09:55 | 9.81678 | 149.15438 | 35880 ft | 485 kts | 310° |
| 2026-05-06 09:56 | 9.86049 | 149.10258 | 35873 ft | 487 kts | 310° |
| 2026-05-06 09:56 | 9.90450 | 149.05042 | 35868 ft | 486 kts | 310° |
| 2026-05-06 09:57 | 9.94841 | 148.99835 | 35877 ft | 486 kts | 310° |
| 2026-05-06 09:57 | 9.99247 | 148.94608 | 35882 ft | 489 kts | 310° |
| 2026-05-06 09:58 | 10.03681 | 148.89346 | 35879 ft | 492 kts | 310° |
| 2026-05-06 09:58 | 10.08116 | 148.84079 | 35878 ft | 494 kts | 310° |
| 2026-05-06 09:59 | 10.12586 | 148.78768 | 35875 ft | 495 kts | 310° |
| 2026-05-06 09:59 | 10.17067 | 148.73443 | 35868 ft | 495 kts | 310° |
| 2026-05-06 10:00 | 10.21527 | 148.68139 | 35868 ft | 491 kts | 310° |
| 2026-05-06 10:00 | 10.25926 | 148.62906 | 35873 ft | 489 kts | 310° |
| 2026-05-06 10:01 | 10.30342 | 148.57649 | 35871 ft | 488 kts | 310° |
| 2026-05-06 10:01 | 10.34745 | 148.52407 | 35873 ft | 485 kts | 310° |
| 2026-05-06 10:02 | 10.39131 | 148.47180 | 35886 ft | 486 kts | 310° |
| 2026-05-06 10:02 | 10.43504 | 148.41968 | 35884 ft | 489 kts | 310° |
| 2026-05-06 10:03 | 10.47914 | 148.36709 | 35863 ft | 486 kts | 310° |
| 2026-05-06 10:03 | 10.52295 | 148.31482 | 35885 ft | 486 kts | 310° |
| 2026-05-06 10:04 | 10.56685 | 148.26241 | 35879 ft | 487 kts | 310° |
| 2026-05-06 10:04 | 10.61074 | 148.20999 | 35880 ft | 488 kts | 310° |
| 2026-05-06 10:05 | 10.65472 | 148.15743 | 35878 ft | 488 kts | 310° |
| 2026-05-06 10:05 | 10.69870 | 148.10485 | 35876 ft | 488 kts | 310° |
| 2026-05-06 10:06 | 10.74264 | 148.05213 | 35873 ft | 487 kts | 309° |
| 2026-05-06 10:06 | 10.78532 | 147.99858 | 35881 ft | 487 kts | 308° |
| 2026-05-06 10:07 | 10.82714 | 147.94515 | 35885 ft | 485 kts | 308° |
| 2026-05-06 10:07 | 10.86919 | 147.89157 | 35878 ft | 483 kts | 308° |
| 2026-05-06 10:08 | 10.91131 | 147.83813 | 35886 ft | 484 kts | 308° |
| 2026-05-06 10:08 | 10.95353 | 147.78465 | 35880 ft | 484 kts | 308° |
| 2026-05-06 10:09 | 10.98853 | 147.74030 | 35877 ft | 482 kts | 308° |
| 2026-05-06 10:09 | 11.03043 | 147.68717 | 35876 ft | 480 kts | 308° |
| 2026-05-06 10:10 | 11.07223 | 147.63413 | 35884 ft | 481 kts | 308° |
| 2026-05-06 10:10 | 11.11409 | 147.58098 | 35881 ft | 481 kts | 308° |
| 2026-05-06 10:11 | 11.15588 | 147.52789 | 35880 ft | 479 kts | 308° |
| 2026-05-06 10:11 | 11.19757 | 147.47491 | 35885 ft | 479 kts | 308° |
| 2026-05-06 10:12 | 11.23920 | 147.42198 | 35895 ft | 483 kts | 308° |
| 2026-05-06 10:12 | 11.28138 | 147.36832 | 35891 ft | 487 kts | 308° |
| 2026-05-06 10:13 | 11.32380 | 147.31432 | 35886 ft | 489 kts | 308° |
| 2026-05-06 10:13 | 11.36633 | 147.26016 | 35885 ft | 490 kts | 308° |
| 2026-05-06 10:14 | 11.40891 | 147.20590 | 35882 ft | 490 kts | 308° |
| 2026-05-06 10:14 | 11.45153 | 147.15158 | 35885 ft | 489 kts | 308° |
| 2026-05-06 10:15 | 11.49373 | 147.09773 | 35887 ft | 488 kts | 308° |
| 2026-05-06 10:15 | 11.53603 | 147.04375 | 35888 ft | 486 kts | 308° |
| 2026-05-06 10:16 | 11.57824 | 146.98986 | 35886 ft | 485 kts | 308° |
| 2026-05-06 10:16 | 11.62023 | 146.93620 | 35889 ft | 483 kts | 308° |
| 2026-05-06 10:17 | 11.66209 | 146.88270 | 35891 ft | 481 kts | 308° |
| 2026-05-06 10:17 | 11.70380 | 146.82936 | 35892 ft | 480 kts | 308° |
| 2026-05-06 10:18 | 11.74536 | 146.77617 | 35892 ft | 478 kts | 308° |
| 2026-05-06 10:18 | 11.78677 | 146.72315 | 35894 ft | 477 kts | 308° |
| 2026-05-06 10:19 | 11.82784 | 146.67053 | 35891 ft | 476 kts | 308° |
| 2026-05-06 10:19 | 11.86909 | 146.61767 | 35897 ft | 475 kts | 308° |
| 2026-05-06 10:20 | 11.91026 | 146.56486 | 35899 ft | 475 kts | 308° |
| 2026-05-06 10:20 | 11.95149 | 146.51196 | 35899 ft | 475 kts | 308° |
| 2026-05-06 10:21 | 11.99268 | 146.45908 | 35899 ft | 476 kts | 307° |
| 2026-05-06 10:21 | 12.03392 | 146.40609 | 35899 ft | 475 kts | 307° |
| 2026-05-06 10:22 | 12.07482 | 146.35354 | 35894 ft | 469 kts | 307° |
| 2026-05-06 10:22 | 12.11546 | 146.30128 | 35441 ft | 474 kts | 307° |
| 2026-05-06 10:23 | 12.13567 | 146.27527 | 34853 ft | 472 kts | 307° |
| 2026-05-06 10:23 | 12.15608 | 146.24900 | 34221 ft | 471 kts | 307° |
| 2026-05-06 10:23 | 12.17636 | 146.22291 | 33513 ft | 470 kts | 307° |
| 2026-05-06 10:23 | 12.19657 | 146.19689 | 33010 ft | 464 kts | 307° |
| 2026-05-06 10:24 | 12.21660 | 146.17110 | 32467 ft | 461 kts | 308° |
| 2026-05-06 10:24 | 12.23638 | 146.14563 | 31984 ft | 456 kts | 308° |
| 2026-05-06 10:24 | 12.25604 | 146.12029 | 31510 ft | 451 kts | 308° |
| 2026-05-06 10:24 | 12.27543 | 146.09530 | 31048 ft | 447 kts | 308° |
| 2026-05-06 10:25 | 12.29467 | 146.07049 | 30590 ft | 443 kts | 308° |
| 2026-05-06 10:25 | 12.31374 | 146.04589 | 30135 ft | 439 kts | 308° |
| 2026-05-06 10:25 | 12.33259 | 146.02157 | 29626 ft | 435 kts | 308° |
| 2026-05-06 10:25 | 12.35128 | 145.99744 | 29107 ft | 431 kts | 308° |
| 2026-05-06 10:26 | 12.36983 | 145.97351 | 28628 ft | 426 kts | 309° |
| 2026-05-06 10:26 | 12.38816 | 145.94984 | 28150 ft | 422 kts | 309° |
| 2026-05-06 10:26 | 12.40632 | 145.92639 | 27683 ft | 418 kts | 309° |
| 2026-05-06 10:26 | 12.42430 | 145.90317 | 27220 ft | 415 kts | 309° |
| 2026-05-06 10:27 | 12.44211 | 145.88016 | 26767 ft | 411 kts | 309° |
| 2026-05-06 10:27 | 12.45982 | 145.85727 | 26310 ft | 408 kts | 309° |
| 2026-05-06 10:27 | 12.47739 | 145.83456 | 25860 ft | 406 kts | 310° |
| 2026-05-06 10:27 | 12.49487 | 145.81197 | 25405 ft | 404 kts | 310° |
| 2026-05-06 10:28 | 12.51205 | 145.78974 | 24953 ft | 403 kts | 310° |
| 2026-05-06 10:28 | 12.52941 | 145.76729 | 24485 ft | 402 kts | 310° |
| 2026-05-06 10:28 | 12.54676 | 145.74484 | 24028 ft | 401 kts | 310° |
| 2026-05-06 10:28 | 12.56403 | 145.72249 | 23572 ft | 400 kts | 310° |
| 2026-05-06 10:29 | 12.58132 | 145.70008 | 23050 ft | 400 kts | 310° |
| 2026-05-06 10:29 | 12.59854 | 145.67778 | 22571 ft | 398 kts | 311° |
| 2026-05-06 10:29 | 12.61568 | 145.65559 | 22110 ft | 396 kts | 310° |
| 2026-05-06 10:29 | 12.63273 | 145.63351 | 21661 ft | 394 kts | 311° |
| 2026-05-06 10:30 | 12.64970 | 145.61153 | 21196 ft | 393 kts | 310° |
| 2026-05-06 10:30 | 12.66660 | 145.58963 | 20770 ft | 391 kts | 310° |
| 2026-05-06 10:30 | 12.68344 | 145.56780 | 20316 ft | 390 kts | 311° |
| 2026-05-06 10:30 | 12.70027 | 145.54602 | 19874 ft | 389 kts | 310° |
| 2026-05-06 10:31 | 12.71708 | 145.52423 | 19428 ft | 389 kts | 310° |
| 2026-05-06 10:31 | 12.73359 | 145.50281 | 18990 ft | 388 kts | 311° |
| 2026-05-06 10:31 | 12.75036 | 145.48107 | 18548 ft | 388 kts | 310° |
| 2026-05-06 10:31 | 12.76707 | 145.45937 | 18096 ft | 388 kts | 310° |
| 2026-05-06 10:32 | 12.78378 | 145.43766 | 17610 ft | 387 kts | 310° |
| 2026-05-06 10:32 | 12.80039 | 145.41609 | 17165 ft | 385 kts | 310° |
| 2026-05-06 10:32 | 12.81691 | 145.39463 | 16729 ft | 383 kts | 310° |
| 2026-05-06 10:32 | 12.83338 | 145.37324 | 16309 ft | 381 kts | 310° |
| 2026-05-06 10:33 | 12.84972 | 145.35201 | 15898 ft | 379 kts | 310° |
| 2026-05-06 10:33 | 12.86599 | 145.33086 | 15483 ft | 377 kts | 310° |
| 2026-05-06 10:33 | 12.88217 | 145.30982 | 15075 ft | 375 kts | 310° |
| 2026-05-06 10:33 | 12.89832 | 145.28882 | 14641 ft | 375 kts | 310° |
| 2026-05-06 10:34 | 12.91446 | 145.26783 | 14219 ft | 374 kts | 310° |
| 2026-05-06 10:34 | 12.93057 | 145.24689 | 13794 ft | 374 kts | 310° |
| 2026-05-06 10:34 | 12.94660 | 145.22603 | 13333 ft | 373 kts | 310° |
| 2026-05-06 10:34 | 12.96261 | 145.20519 | 12907 ft | 371 kts | 310° |
| 2026-05-06 10:35 | 12.97853 | 145.18446 | 12490 ft | 369 kts | 310° |
| 2026-05-06 10:35 | 12.99433 | 145.16388 | 12080 ft | 367 kts | 310° |
| 2026-05-06 10:35 | 13.01007 | 145.14338 | 11670 ft | 365 kts | 310° |
| 2026-05-06 10:35 | 13.02570 | 145.12302 | 11258 ft | 363 kts | 310° |
| 2026-05-06 10:36 | 13.04108 | 145.10297 | 10872 ft | 361 kts | 310° |
| 2026-05-06 10:36 | 13.05652 | 145.08286 | 10601 ft | 355 kts | 310° |
| 2026-05-06 10:36 | 13.07159 | 145.06319 | 10415 ft | 346 kts | 310° |
| 2026-05-06 10:36 | 13.08629 | 145.04400 | 10258 ft | 337 kts | 310° |
| 2026-05-06 10:37 | 13.10060 | 145.02533 | 10122 ft | 328 kts | 310° |
| 2026-05-06 10:37 | 13.11454 | 145.00714 | 9983 ft | 320 kts | 311° |
| 2026-05-06 10:37 | 13.12809 | 144.98945 | 9918 ft | 309 kts | 311° |
| 2026-05-06 10:37 | 13.14148 | 144.97200 | 9455 ft | 314 kts | 311° |
| 2026-05-06 10:38 | 13.15264 | 144.95746 | 9169 ft | 313 kts | 311° |
| 2026-05-06 10:38 | 13.16610 | 144.93990 | 8854 ft | 312 kts | 311° |
| 2026-05-06 10:38 | 13.17927 | 144.92271 | 8560 ft | 310 kts | 311° |
| 2026-05-06 10:38 | 13.19259 | 144.90532 | 8261 ft | 309 kts | 311° |
| 2026-05-06 10:39 | 13.20588 | 144.88796 | 7963 ft | 308 kts | 311° |
| 2026-05-06 10:39 | 13.21909 | 144.87069 | 7701 ft | 307 kts | 311° |
| 2026-05-06 10:39 | 13.23236 | 144.85336 | 7362 ft | 310 kts | 311° |
| 2026-05-06 10:39 | 13.24569 | 144.83594 | 7101 ft | 310 kts | 311° |
| 2026-05-06 10:40 | 13.25905 | 144.81848 | 6762 ft | 309 kts | 311° |
| 2026-05-06 10:40 | 13.27212 | 144.80136 | 6468 ft | 300 kts | 311° |
| 2026-05-06 10:40 | 13.28485 | 144.78470 | 6169 ft | 292 kts | 311° |
| 2026-05-06 10:40 | 13.29720 | 144.76821 | 5896 ft | 292 kts | 306° |
| 2026-05-06 10:41 | 13.30443 | 144.74874 | 5604 ft | 295 kts | 277° |
| 2026-05-06 10:41 | 13.30495 | 144.72795 | 5403 ft | 289 kts | 271° |
| 2026-05-06 10:41 | 13.30649 | 144.70745 | 5123 ft | 287 kts | 279° |
| 2026-05-06 10:41 | 13.31079 | 144.68780 | 4865 ft | 285 kts | 289° |
| 2026-05-06 10:42 | 13.31783 | 144.66901 | 4627 ft | 280 kts | 298° |
| 2026-05-06 10:42 | 13.32721 | 144.65145 | 4416 ft | 280 kts | 307° |
| 2026-05-06 10:42 | 13.33856 | 144.63536 | 4281 ft | 275 kts | 314° |
| 2026-05-06 10:42 | 13.35134 | 144.62124 | 4143 ft | 265 kts | 321° |
| 2026-05-06 10:43 | 13.36521 | 144.60934 | 4012 ft | 253 kts | 334° |
| 2026-05-06 10:43 | 13.38101 | 144.60449 | 3880 ft | 227 kts | 10° |
| 2026-05-06 10:43 | 13.39494 | 144.60941 | 3760 ft | 207 kts | 42° |
| 2026-05-06 10:44 | 13.41074 | 144.63299 | 3308 ft | 202 kts | 68° |
| 2026-05-06 10:44 | 13.41632 | 144.64581 | 3070 ft | 195 kts | 66° |
| 2026-05-06 10:44 | 13.42181 | 144.65813 | 2816 ft | 184 kts | 66° |
| 2026-05-06 10:44 | 13.42702 | 144.66962 | 2582 ft | 171 kts | 66° |
| 2026-05-06 10:45 | 13.43181 | 144.68018 | 2355 ft | 156 kts | 68° |
| 2026-05-06 10:45 | 13.43611 | 144.68963 | 2182 ft | 139 kts | 69° |
| 2026-05-06 10:45 | 13.43996 | 144.69814 | 2053 ft | 130 kts | 68° |
| 2026-05-06 10:45 | 13.44372 | 144.70647 | 1861 ft | 127 kts | 67° |
| 2026-05-06 10:46 | 13.44748 | 144.71471 | 1707 ft | 130 kts | 67° |
| 2026-05-06 10:46 | 13.45132 | 144.72321 | 1517 ft | 130 kts | 66° |
| 2026-05-06 10:46 | 13.45508 | 144.73147 | 1366 ft | 126 kts | 68° |
| 2026-05-06 10:46 | 13.45880 | 144.73975 | 1190 ft | 129 kts | 69° |
| 2026-05-06 10:47 | 13.46261 | 144.74804 | 1042 ft | 130 kts | 69° |
| 2026-05-06 10:47 | 13.46637 | 144.75644 | 858 ft | 128 kts | 65° |
| 2026-05-06 10:47 | 13.47011 | 144.76460 | 693 ft | 127 kts | 66° |
| 2026-05-06 10:47 | 13.47397 | 144.77294 | 536 ft | 132 kts | 67° |
| 2026-05-06 10:48 | 13.47792 | 144.78172 | 378 ft | 138 kts | 65° |
| 2026-05-06 10:48 | 13.48191 | 144.79054 | 286 ft | 127 kts | 65° |
| 2026-05-06 10:48 | 13.48516 | 144.79765 | 292 ft | 95 kts | 65° |
| 2026-05-06 10:48 | 13.48744 | 144.80218 | 296 ft | 51 kts | 50° |
| 2026-05-06 10:49 | 13.48884 | 144.80338 | 295 ft | 17 kts | 34° |
| 2026-05-06 10:49 | 13.48970 | 144.80401 | 297 ft | 14 kts | 38° |
| 2026-05-06 10:49 | 13.49009 | 144.80438 | 299 ft | 7 kts | 52° |
| 2026-05-06 10:49 | 13.49034 | 144.80482 | 300 ft | 7 kts | 59° |
| 2026-05-06 10:50 | 13.49058 | 144.80525 | 298 ft | 7 kts | 61° |
| 2026-05-06 10:50 | 13.49080 | 144.80567 | 299 ft | 7 kts | 63° |
| 2026-05-06 10:50 | 13.49102 | 144.80609 | 298 ft | 7 kts | 61° |
| 2026-05-06 10:50 | 13.49124 | 144.80651 | 296 ft | 7 kts | 62° |
| 2026-05-06 10:51 | 13.49147 | 144.80674 | 297 ft | 3 kts | 11° |
| 2026-05-06 10:51 | 13.49171 | 144.80666 | 296 ft | 5 kts | 333° |
| 2026-05-06 10:51 | 13.49205 | 144.80646 | 299 ft | 5 kts | 330° |
| 2026-05-06 10:51 | 13.49223 | 144.80636 | 299 ft | 1 kts | 330° |
| 2026-05-06 10:52 | 13.49223 | 144.80635 | 299 ft | 0 kts | 330° |